sensor_id;sensor_type;location;lat;lon;timestamp;P1;durP1;ratioP1;P2;durP2;ratioP2
65234;SDS011;51820;48.374;10.930;2022-11-02T00:01:59;14.27;;;5.35;;
65234;SDS011;51820;48.374;10.930;2022-11-02T00:04:27;10.73;;;4.63;;
65234;SDS011;51820;48.374;10.930;2022-11-02T00:06:56;11.83;;;4.63;;
65234;SDS011;51820;48.374;10.930;2022-11-02T00:09:25;12.15;;;4.80;;
65234;SDS011;51820;48.374;10.930;2022-11-02T00:11:56;10.55;;;4.50;;
65234;SDS011;51820;48.374;10.930;2022-11-02T00:14:24;18.05;;;5.60;;
65234;SDS011;51820;48.374;10.930;2022-11-02T00:16:53;12.07;;;4.82;;
65234;SDS011;51820;48.374;10.930;2022-11-02T00:19:23;13.27;;;4.43;;
65234;SDS011;51820;48.374;10.930;2022-11-02T00:21:51;12.27;;;4.60;;
65234;SDS011;51820;48.374;10.930;2022-11-02T00:24:21;12.32;;;4.85;;
65234;SDS011;51820;48.374;10.930;2022-11-02T00:26:49;10.02;;;4.30;;
65234;SDS011;51820;48.374;10.930;2022-11-02T00:29:17;12.48;;;4.63;;
65234;SDS011;51820;48.374;10.930;2022-11-02T00:31:49;10.43;;;4.23;;
65234;SDS011;51820;48.374;10.930;2022-11-02T00:34:18;11.15;;;4.68;;
65234;SDS011;51820;48.374;10.930;2022-11-02T00:36:48;10.20;;;4.43;;
65234;SDS011;51820;48.374;10.930;2022-11-02T00:39:21;12.18;;;4.60;;
65234;SDS011;51820;48.374;10.930;2022-11-02T00:41:49;12.43;;;4.68;;
65234;SDS011;51820;48.374;10.930;2022-11-02T00:44:18;17.97;;;4.97;;
65234;SDS011;51820;48.374;10.930;2022-11-02T00:46:46;10.65;;;4.60;;
65234;SDS011;51820;48.374;10.930;2022-11-02T00:49:16;10.18;;;4.40;;
65234;SDS011;51820;48.374;10.930;2022-11-02T00:51:44;10.35;;;4.90;;
65234;SDS011;51820;48.374;10.930;2022-11-02T00:54:15;12.05;;;5.13;;
65234;SDS011;51820;48.374;10.930;2022-11-02T00:56:44;10.03;;;4.63;;
65234;SDS011;51820;48.374;10.930;2022-11-02T00:59:13;11.52;;;4.80;;
65234;SDS011;51820;48.374;10.930;2022-11-02T01:01:41;12.98;;;4.60;;
65234;SDS011;51820;48.374;10.930;2022-11-02T01:04:12;9.93;;;4.25;;
65234;SDS011;51820;48.374;10.930;2022-11-02T01:06:41;11.75;;;4.35;;
65234;SDS011;51820;48.374;10.930;2022-11-02T01:09:19;10.43;;;4.40;;
65234;SDS011;51820;48.374;10.930;2022-11-02T01:11:47;12.80;;;4.28;;
65234;SDS011;51820;48.374;10.930;2022-11-02T01:14:16;10.40;;;4.55;;
65234;SDS011;51820;48.374;10.930;2022-11-02T01:16:45;10.70;;;4.22;;
65234;SDS011;51820;48.374;10.930;2022-11-02T01:19:14;15.68;;;4.85;;
65234;SDS011;51820;48.374;10.930;2022-11-02T01:21:42;10.27;;;4.27;;
65234;SDS011;51820;48.374;10.930;2022-11-02T01:24:13;13.27;;;4.20;;
65234;SDS011;51820;48.374;10.930;2022-11-02T01:26:42;9.38;;;3.90;;
65234;SDS011;51820;48.374;10.930;2022-11-02T01:29:21;11.40;;;4.40;;
65234;SDS011;51820;48.374;10.930;2022-11-02T01:31:50;13.75;;;4.55;;
65234;SDS011;51820;48.374;10.930;2022-11-02T01:34:19;10.33;;;3.90;;
65234;SDS011;51820;48.374;10.930;2022-11-02T01:36:48;11.27;;;4.90;;
65234;SDS011;51820;48.374;10.930;2022-11-02T01:39:16;10.77;;;3.83;;
65234;SDS011;51820;48.374;10.930;2022-11-02T01:41:49;9.82;;;4.70;;
65234;SDS011;51820;48.374;10.930;2022-11-02T01:44:28;12.15;;;4.68;;
65234;SDS011;51820;48.374;10.930;2022-11-02T01:46:58;13.23;;;4.47;;
65234;SDS011;51820;48.374;10.930;2022-11-02T01:49:34;9.15;;;4.22;;
65234;SDS011;51820;48.374;10.930;2022-11-02T01:52:06;8.50;;;3.70;;
65234;SDS011;51820;48.374;10.930;2022-11-02T01:54:38;9.88;;;3.60;;
65234;SDS011;51820;48.374;10.930;2022-11-02T01:57:12;6.28;;;2.72;;
65234;SDS011;51820;48.374;10.930;2022-11-02T01:59:45;7.20;;;2.70;;
65234;SDS011;51820;48.374;10.930;2022-11-02T02:02:17;5.88;;;2.50;;
65234;SDS011;51820;48.374;10.930;2022-11-02T02:04:50;6.53;;;2.47;;
65234;SDS011;51820;48.374;10.930;2022-11-02T02:07:23;7.80;;;2.58;;
65234;SDS011;51820;48.374;10.930;2022-11-02T02:09:52;9.85;;;2.70;;
65234;SDS011;51820;48.374;10.930;2022-11-02T02:12:26;11.07;;;3.03;;
65234;SDS011;51820;48.374;10.930;2022-11-02T02:14:56;9.40;;;2.72;;
65234;SDS011;51820;48.374;10.930;2022-11-02T02:17:31;9.50;;;3.17;;
65234;SDS011;51820;48.374;10.930;2022-11-02T02:20:10;8.40;;;2.55;;
65234;SDS011;51820;48.374;10.930;2022-11-02T02:29:03;8.82;;;2.78;;
65234;SDS011;51820;48.374;10.930;2022-11-02T02:31:39;8.98;;;3.20;;
65234;SDS011;51820;48.374;10.930;2022-11-02T02:34:14;9.00;;;2.47;;
65234;SDS011;51820;48.374;10.930;2022-11-02T02:36:49;8.95;;;2.20;;
65234;SDS011;51820;48.374;10.930;2022-11-02T02:39:23;8.27;;;2.50;;
65234;SDS011;51820;48.374;10.930;2022-11-02T02:41:57;6.43;;;2.47;;
65234;SDS011;51820;48.374;10.930;2022-11-02T02:44:30;5.90;;;2.25;;
65234;SDS011;51820;48.374;10.930;2022-11-02T02:47:03;7.22;;;2.58;;
65234;SDS011;51820;48.374;10.930;2022-11-02T02:49:38;8.05;;;2.63;;
65234;SDS011;51820;48.374;10.930;2022-11-02T02:52:09;6.80;;;2.50;;
65234;SDS011;51820;48.374;10.930;2022-11-02T02:54:40;7.32;;;2.47;;
65234;SDS011;51820;48.374;10.930;2022-11-02T02:57:12;8.25;;;2.47;;
65234;SDS011;51820;48.374;10.930;2022-11-02T02:59:48;7.60;;;2.58;;
65234;SDS011;51820;48.374;10.930;2022-11-02T03:02:19;9.00;;;2.97;;
65234;SDS011;51820;48.374;10.930;2022-11-02T03:04:51;8.03;;;3.00;;
65234;SDS011;51820;48.374;10.930;2022-11-02T03:07:21;8.93;;;2.65;;
65234;SDS011;51820;48.374;10.930;2022-11-02T03:10:04;10.35;;;2.97;;
65234;SDS011;51820;48.374;10.930;2022-11-02T03:12:42;9.43;;;2.63;;
65234;SDS011;51820;48.374;10.930;2022-11-02T03:15:21;7.75;;;2.50;;
65234;SDS011;51820;48.374;10.930;2022-11-02T03:17:56;8.83;;;2.77;;
65234;SDS011;51820;48.374;10.930;2022-11-02T03:20:32;8.43;;;3.08;;
65234;SDS011;51820;48.374;10.930;2022-11-02T03:23:10;9.75;;;2.80;;
65234;SDS011;51820;48.374;10.930;2022-11-02T03:25:49;8.17;;;2.60;;
65234;SDS011;51820;48.374;10.930;2022-11-02T03:28:25;7.32;;;2.58;;
65234;SDS011;51820;48.374;10.930;2022-11-02T03:31:04;7.57;;;2.70;;
65234;SDS011;51820;48.374;10.930;2022-11-02T03:33:36;12.70;;;2.90;;
65234;SDS011;51820;48.374;10.930;2022-11-02T03:36:11;10.20;;;2.70;;
65234;SDS011;51820;48.374;10.930;2022-11-02T03:38:43;9.45;;;3.00;;
65234;SDS011;51820;48.374;10.930;2022-11-02T03:41:16;6.15;;;2.28;;
65234;SDS011;51820;48.374;10.930;2022-11-02T03:43:48;11.17;;;2.30;;
65234;SDS011;51820;48.374;10.930;2022-11-02T03:46:26;6.40;;;2.40;;
65234;SDS011;51820;48.374;10.930;2022-11-02T03:48:55;13.13;;;2.70;;
65234;SDS011;51820;48.374;10.930;2022-11-02T03:51:24;7.50;;;2.35;;
65234;SDS011;51820;48.374;10.930;2022-11-02T03:53:54;7.07;;;2.45;;
65234;SDS011;51820;48.374;10.930;2022-11-02T03:56:29;6.87;;;2.37;;
65234;SDS011;51820;48.374;10.930;2022-11-02T03:59:02;6.60;;;2.45;;
65234;SDS011;51820;48.374;10.930;2022-11-02T04:01:32;8.25;;;2.53;;
65234;SDS011;51820;48.374;10.930;2022-11-02T04:04:08;5.68;;;2.20;;
65234;SDS011;51820;48.374;10.930;2022-11-02T04:06:37;7.13;;;2.40;;
65234;SDS011;51820;48.374;10.930;2022-11-02T04:09:09;10.73;;;2.60;;
65234;SDS011;51820;48.374;10.930;2022-11-02T04:11:38;8.25;;;2.40;;
65234;SDS011;51820;48.374;10.930;2022-11-02T04:14:21;7.13;;;2.17;;
65234;SDS011;51820;48.374;10.930;2022-11-02T04:17:13;6.72;;;2.47;;
65234;SDS011;51820;48.374;10.930;2022-11-02T04:20:02;9.60;;;2.55;;
65234;SDS011;51820;48.374;10.930;2022-11-02T04:22:31;7.30;;;2.47;;
65234;SDS011;51820;48.374;10.930;2022-11-02T04:28:14;7.97;;;2.75;;
65234;SDS011;51820;48.374;10.930;2022-11-02T04:30:49;7.35;;;2.65;;
65234;SDS011;51820;48.374;10.930;2022-11-02T04:33:21;8.25;;;2.53;;
65234;SDS011;51820;48.374;10.930;2022-11-02T04:36:08;8.30;;;2.60;;
65234;SDS011;51820;48.374;10.930;2022-11-02T04:38:38;8.25;;;2.83;;
65234;SDS011;51820;48.374;10.930;2022-11-02T04:41:19;7.97;;;2.85;;
65234;SDS011;51820;48.374;10.930;2022-11-02T04:44:26;7.30;;;2.95;;
65234;SDS011;51820;48.374;10.930;2022-11-02T04:47:00;7.25;;;2.90;;
65234;SDS011;51820;48.374;10.930;2022-11-02T04:49:32;11.40;;;2.67;;
65234;SDS011;51820;48.374;10.930;2022-11-02T04:52:06;6.93;;;2.60;;
65234;SDS011;51820;48.374;10.930;2022-11-02T04:54:38;7.07;;;2.60;;
65234;SDS011;51820;48.374;10.930;2022-11-02T04:57:07;8.32;;;2.40;;
65234;SDS011;51820;48.374;10.930;2022-11-02T04:59:35;7.32;;;2.50;;
65234;SDS011;51820;48.374;10.930;2022-11-02T05:02:05;8.87;;;3.07;;
65234;SDS011;51820;48.374;10.930;2022-11-02T05:04:36;8.88;;;2.88;;
65234;SDS011;51820;48.374;10.930;2022-11-02T05:07:05;7.82;;;2.63;;
65234;SDS011;51820;48.374;10.930;2022-11-02T05:09:35;8.50;;;3.08;;
65234;SDS011;51820;48.374;10.930;2022-11-02T05:12:04;8.48;;;3.13;;
65234;SDS011;51820;48.374;10.930;2022-11-02T05:14:33;6.67;;;2.57;;
65234;SDS011;51820;48.374;10.930;2022-11-02T05:17:02;9.15;;;3.17;;
65234;SDS011;51820;48.374;10.930;2022-11-02T05:19:32;9.98;;;3.15;;
65234;SDS011;51820;48.374;10.930;2022-11-02T05:22:03;7.47;;;2.83;;
65234;SDS011;51820;48.374;10.930;2022-11-02T05:24:32;6.13;;;2.53;;
65234;SDS011;51820;48.374;10.930;2022-11-02T05:27:01;11.20;;;3.50;;
65234;SDS011;51820;48.374;10.930;2022-11-02T05:29:33;9.40;;;3.75;;
65234;SDS011;51820;48.374;10.930;2022-11-02T05:32:02;15.52;;;4.80;;
65234;SDS011;51820;48.374;10.930;2022-11-02T05:34:34;9.52;;;3.25;;
65234;SDS011;51820;48.374;10.930;2022-11-02T05:37:04;12.05;;;3.60;;
65234;SDS011;51820;48.374;10.930;2022-11-02T05:39:33;10.10;;;4.37;;
65234;SDS011;51820;48.374;10.930;2022-11-02T05:42:02;13.00;;;4.95;;
65234;SDS011;51820;48.374;10.930;2022-11-02T05:44:31;9.52;;;3.60;;
65234;SDS011;51820;48.374;10.930;2022-11-02T05:46:59;8.45;;;3.40;;
65234;SDS011;51820;48.374;10.930;2022-11-02T05:49:28;10.43;;;3.78;;
65234;SDS011;51820;48.374;10.930;2022-11-02T05:51:56;11.23;;;3.87;;
65234;SDS011;51820;48.374;10.930;2022-11-02T05:54:26;10.15;;;3.42;;
65234;SDS011;51820;48.374;10.930;2022-11-02T05:56:55;8.40;;;3.75;;
65234;SDS011;51820;48.374;10.930;2022-11-02T05:59:24;9.00;;;3.40;;
65234;SDS011;51820;48.374;10.930;2022-11-02T06:01:52;12.68;;;3.97;;
65234;SDS011;51820;48.374;10.930;2022-11-02T06:04:20;10.17;;;3.53;;
65234;SDS011;51820;48.374;10.930;2022-11-02T06:06:48;10.45;;;4.10;;
65234;SDS011;51820;48.374;10.930;2022-11-02T06:09:17;12.25;;;3.90;;
65234;SDS011;51820;48.374;10.930;2022-11-02T06:11:46;11.18;;;5.13;;
65234;SDS011;51820;48.374;10.930;2022-11-02T06:14:15;10.00;;;4.68;;
65234;SDS011;51820;48.374;10.930;2022-11-02T06:16:43;12.37;;;4.07;;
65234;SDS011;51820;48.374;10.930;2022-11-02T06:19:12;10.40;;;3.80;;
65234;SDS011;51820;48.374;10.930;2022-11-02T06:21:45;12.27;;;4.00;;
65234;SDS011;51820;48.374;10.930;2022-11-02T06:24:14;13.70;;;4.20;;
65234;SDS011;51820;48.374;10.930;2022-11-02T06:26:42;10.05;;;3.78;;
65234;SDS011;51820;48.374;10.930;2022-11-02T06:29:15;10.73;;;4.13;;
65234;SDS011;51820;48.374;10.930;2022-11-02T06:31:44;13.23;;;4.60;;
65234;SDS011;51820;48.374;10.930;2022-11-02T06:34:12;8.57;;;4.07;;
65234;SDS011;51820;48.374;10.930;2022-11-02T06:36:41;9.93;;;4.05;;
65234;SDS011;51820;48.374;10.930;2022-11-02T06:39:09;10.00;;;4.38;;
65234;SDS011;51820;48.374;10.930;2022-11-02T06:41:38;10.80;;;4.30;;
65234;SDS011;51820;48.374;10.930;2022-11-02T06:44:08;10.73;;;4.15;;
65234;SDS011;51820;48.374;10.930;2022-11-02T06:46:38;13.32;;;4.72;;
65234;SDS011;51820;48.374;10.930;2022-11-02T06:49:06;14.13;;;5.43;;
65234;SDS011;51820;48.374;10.930;2022-11-02T06:51:35;16.90;;;5.47;;
65234;SDS011;51820;48.374;10.930;2022-11-02T06:54:03;14.13;;;4.57;;
65234;SDS011;51820;48.374;10.930;2022-11-02T06:56:34;10.55;;;4.28;;
65234;SDS011;51820;48.374;10.930;2022-11-02T06:59:02;11.80;;;4.05;;
65234;SDS011;51820;48.374;10.930;2022-11-02T07:01:30;11.82;;;3.67;;
65234;SDS011;51820;48.374;10.930;2022-11-02T07:04:02;9.68;;;4.53;;
65234;SDS011;51820;48.374;10.930;2022-11-02T07:06:31;11.20;;;3.80;;
65234;SDS011;51820;48.374;10.930;2022-11-02T07:08:59;12.43;;;4.03;;
65234;SDS011;51820;48.374;10.930;2022-11-02T07:11:27;11.52;;;3.90;;
65234;SDS011;51820;48.374;10.930;2022-11-02T07:13:56;12.60;;;3.78;;
65234;SDS011;51820;48.374;10.930;2022-11-02T07:16:27;8.85;;;4.00;;
65234;SDS011;51820;48.374;10.930;2022-11-02T07:19:11;9.17;;;4.10;;
65234;SDS011;51820;48.374;10.930;2022-11-02T07:21:39;12.70;;;4.07;;
65234;SDS011;51820;48.374;10.930;2022-11-02T07:24:13;10.68;;;3.63;;
65234;SDS011;51820;48.374;10.930;2022-11-02T07:26:41;8.85;;;3.85;;
65234;SDS011;51820;48.374;10.930;2022-11-02T07:29:12;11.52;;;3.90;;
65234;SDS011;51820;48.374;10.930;2022-11-02T07:31:40;11.27;;;3.97;;
65234;SDS011;51820;48.374;10.930;2022-11-02T07:34:09;14.85;;;3.47;;
65234;SDS011;51820;48.374;10.930;2022-11-02T07:36:44;11.68;;;3.78;;
65234;SDS011;51820;48.374;10.930;2022-11-02T07:39:12;10.75;;;3.30;;
65234;SDS011;51820;48.374;10.930;2022-11-02T07:41:44;10.10;;;3.70;;
65234;SDS011;51820;48.374;10.930;2022-11-02T07:44:17;10.33;;;3.60;;
65234;SDS011;51820;48.374;10.930;2022-11-02T07:46:52;9.43;;;3.42;;
65234;SDS011;51820;48.374;10.930;2022-11-02T07:49:20;11.00;;;3.38;;
65234;SDS011;51820;48.374;10.930;2022-11-02T07:51:50;9.05;;;2.97;;
65234;SDS011;51820;48.374;10.930;2022-11-02T07:54:19;9.25;;;3.10;;
65234;SDS011;51820;48.374;10.930;2022-11-02T07:56:48;9.13;;;2.90;;
65234;SDS011;51820;48.374;10.930;2022-11-02T07:59:17;12.50;;;2.97;;
65234;SDS011;51820;48.374;10.930;2022-11-02T08:01:46;8.27;;;2.53;;
65234;SDS011;51820;48.374;10.930;2022-11-02T08:04:14;10.07;;;3.17;;
65234;SDS011;51820;48.374;10.930;2022-11-02T08:06:46;11.52;;;3.40;;
65234;SDS011;51820;48.374;10.930;2022-11-02T08:09:16;10.60;;;2.87;;
65234;SDS011;51820;48.374;10.930;2022-11-02T08:11:45;10.23;;;2.83;;
65234;SDS011;51820;48.374;10.930;2022-11-02T08:14:13;8.23;;;2.90;;
65234;SDS011;51820;48.374;10.930;2022-11-02T08:16:42;10.43;;;2.30;;
65234;SDS011;51820;48.374;10.930;2022-11-02T08:19:13;8.50;;;2.92;;
65234;SDS011;51820;48.374;10.930;2022-11-02T08:21:53;11.00;;;2.67;;
65234;SDS011;51820;48.374;10.930;2022-11-02T08:24:23;11.27;;;3.15;;
65234;SDS011;51820;48.374;10.930;2022-11-02T08:26:51;8.00;;;2.42;;
65234;SDS011;51820;48.374;10.930;2022-11-02T08:29:20;10.38;;;3.10;;
65234;SDS011;51820;48.374;10.930;2022-11-02T08:31:49;10.07;;;2.75;;
65234;SDS011;51820;48.374;10.930;2022-11-02T08:34:20;11.00;;;2.00;;
65234;SDS011;51820;48.374;10.930;2022-11-02T08:36:50;8.85;;;2.00;;
65234;SDS011;51820;48.374;10.930;2022-11-02T08:39:18;9.88;;;2.53;;
65234;SDS011;51820;48.374;10.930;2022-11-02T08:41:48;11.20;;;3.00;;
65234;SDS011;51820;48.374;10.930;2022-11-02T08:44:17;10.40;;;2.35;;
65234;SDS011;51820;48.374;10.930;2022-11-02T08:46:45;15.27;;;4.13;;
65234;SDS011;51820;48.374;10.930;2022-11-02T08:49:14;8.35;;;2.65;;
65234;SDS011;51820;48.374;10.930;2022-11-02T08:51:44;10.98;;;2.45;;
65234;SDS011;51820;48.374;10.930;2022-11-02T08:54:12;8.07;;;2.00;;
65234;SDS011;51820;48.374;10.930;2022-11-02T08:56:41;8.90;;;2.10;;
65234;SDS011;51820;48.374;10.930;2022-11-02T08:59:11;9.70;;;2.00;;
65234;SDS011;51820;48.374;10.930;2022-11-02T09:01:39;11.48;;;2.25;;
65234;SDS011;51820;48.374;10.930;2022-11-02T09:04:08;11.63;;;2.25;;
65234;SDS011;51820;48.374;10.930;2022-11-02T09:06:36;12.00;;;2.42;;
65234;SDS011;51820;48.374;10.930;2022-11-02T09:09:04;7.80;;;2.20;;
65234;SDS011;51820;48.374;10.930;2022-11-02T09:11:33;11.73;;;1.87;;
65234;SDS011;51820;48.374;10.930;2022-11-02T09:14:03;10.52;;;2.28;;
65234;SDS011;51820;48.374;10.930;2022-11-02T09:16:34;10.73;;;2.80;;
65234;SDS011;51820;48.374;10.930;2022-11-02T09:19:07;11.25;;;2.55;;
65234;SDS011;51820;48.374;10.930;2022-11-02T09:21:35;12.02;;;3.20;;
65234;SDS011;51820;48.374;10.930;2022-11-02T09:24:04;8.50;;;2.60;;
65234;SDS011;51820;48.374;10.930;2022-11-02T09:26:33;8.52;;;2.20;;
65234;SDS011;51820;48.374;10.930;2022-11-02T09:29:05;8.95;;;1.95;;
65234;SDS011;51820;48.374;10.930;2022-11-02T09:31:36;8.95;;;2.00;;
65234;SDS011;51820;48.374;10.930;2022-11-02T09:34:04;9.05;;;2.25;;
65234;SDS011;51820;48.374;10.930;2022-11-02T09:37:20;9.20;;;2.10;;
65234;SDS011;51820;48.374;10.930;2022-11-02T09:44:49;9.13;;;2.17;;
65234;SDS011;51820;48.374;10.930;2022-11-02T09:47:35;11.85;;;2.13;;
65234;SDS011;51820;48.374;10.930;2022-11-02T09:50:32;7.85;;;1.88;;
65234;SDS011;51820;48.374;10.930;2022-11-02T09:53:06;6.93;;;1.50;;
65234;SDS011;51820;48.374;10.930;2022-11-02T09:55:41;7.13;;;1.17;;
65234;SDS011;51820;48.374;10.930;2022-11-02T09:58:16;7.32;;;1.58;;
65234;SDS011;51820;48.374;10.930;2022-11-02T10:00:49;9.52;;;1.90;;
65234;SDS011;51820;48.374;10.930;2022-11-02T10:03:30;8.85;;;1.42;;
65234;SDS011;51820;48.374;10.930;2022-11-02T10:06:08;10.73;;;1.80;;
65234;SDS011;51820;48.374;10.930;2022-11-02T10:08:43;7.22;;;1.52;;
65234;SDS011;51820;48.374;10.930;2022-11-02T10:11:24;10.43;;;1.63;;
65234;SDS011;51820;48.374;10.930;2022-11-02T10:14:07;7.30;;;2.13;;
65234;SDS011;51820;48.374;10.930;2022-11-02T10:16:43;9.68;;;1.90;;
65234;SDS011;51820;48.374;10.930;2022-11-02T10:19:18;7.53;;;1.60;;
65234;SDS011;51820;48.374;10.930;2022-11-02T10:21:54;8.52;;;1.70;;
65234;SDS011;51820;48.374;10.930;2022-11-02T10:24:24;9.35;;;1.30;;
65234;SDS011;51820;48.374;10.930;2022-11-02T10:27:00;7.38;;;1.50;;
65234;SDS011;51820;48.374;10.930;2022-11-02T10:29:40;9.55;;;1.73;;
65234;SDS011;51820;48.374;10.930;2022-11-02T10:32:15;7.53;;;1.43;;
65234;SDS011;51820;48.374;10.930;2022-11-02T10:41:15;7.00;;;0.90;;
65234;SDS011;51820;48.374;10.930;2022-11-02T10:48:00;13.40;;;1.60;;
65234;SDS011;51820;48.374;10.930;2022-11-02T11:03:19;8.82;;;1.70;;
65234;SDS011;51820;48.374;10.930;2022-11-02T11:12:22;7.80;;;1.23;;
65234;SDS011;51820;48.374;10.930;2022-11-02T11:15:20;6.95;;;1.33;;
65234;SDS011;51820;48.374;10.930;2022-11-02T11:18:19;7.90;;;1.23;;
65234;SDS011;51820;48.374;10.930;2022-11-02T11:28:20;4.90;;;0.82;;
65234;SDS011;51820;48.374;10.930;2022-11-02T11:31:00;6.03;;;1.10;;
65234;SDS011;51820;48.374;10.930;2022-11-02T11:35:02;4.88;;;0.88;;
65234;SDS011;51820;48.374;10.930;2022-11-02T11:37:35;5.17;;;1.07;;
65234;SDS011;51820;48.374;10.930;2022-11-02T11:40:17;6.65;;;1.00;;
65234;SDS011;51820;48.374;10.930;2022-11-02T11:42:48;5.78;;;1.25;;
65234;SDS011;51820;48.374;10.930;2022-11-02T11:45:28;8.15;;;1.08;;
65234;SDS011;51820;48.374;10.930;2022-11-02T11:48:02;5.88;;;1.00;;
65234;SDS011;51820;48.374;10.930;2022-11-02T11:50:35;5.27;;;0.80;;
65234;SDS011;51820;48.374;10.930;2022-11-02T11:53:15;4.40;;;1.00;;
65234;SDS011;51820;48.374;10.930;2022-11-02T11:55:48;6.80;;;1.10;;
65234;SDS011;51820;48.374;10.930;2022-11-02T11:58:23;8.38;;;1.23;;
65234;SDS011;51820;48.374;10.930;2022-11-02T12:01:05;7.80;;;1.27;;
65234;SDS011;51820;48.374;10.930;2022-11-02T12:03:48;5.63;;;0.93;;
65234;SDS011;51820;48.374;10.930;2022-11-02T12:06:21;5.22;;;1.05;;
65234;SDS011;51820;48.374;10.930;2022-11-02T12:08:59;5.38;;;0.80;;
65234;SDS011;51820;48.374;10.930;2022-11-02T12:11:36;4.93;;;0.75;;
65234;SDS011;51820;48.374;10.930;2022-11-02T12:14:19;4.75;;;0.80;;
65234;SDS011;51820;48.374;10.930;2022-11-02T12:17:01;7.10;;;1.53;;
65234;SDS011;51820;48.374;10.930;2022-11-02T12:19:58;4.90;;;1.00;;
65234;SDS011;51820;48.374;10.930;2022-11-02T12:22:39;8.52;;;1.08;;
65234;SDS011;51820;48.374;10.930;2022-11-02T12:28:07;5.05;;;1.10;;
65234;SDS011;51820;48.374;10.930;2022-11-02T12:30:49;5.67;;;1.10;;
65234;SDS011;51820;48.374;10.930;2022-11-02T12:33:28;5.68;;;1.17;;
65234;SDS011;51820;48.374;10.930;2022-11-02T12:36:27;5.03;;;1.08;;
65234;SDS011;51820;48.374;10.930;2022-11-02T12:39:38;5.80;;;0.90;;
65234;SDS011;51820;48.374;10.930;2022-11-02T12:42:18;3.63;;;0.70;;
65234;SDS011;51820;48.374;10.930;2022-11-02T12:44:55;7.33;;;0.97;;
65234;SDS011;51820;48.374;10.930;2022-11-02T12:47:36;7.72;;;1.10;;
65234;SDS011;51820;48.374;10.930;2022-11-02T12:50:17;13.25;;;2.03;;
65234;SDS011;51820;48.374;10.930;2022-11-02T12:52:55;6.28;;;1.13;;
65234;SDS011;51820;48.374;10.930;2022-11-02T12:55:33;6.13;;;1.00;;
65234;SDS011;51820;48.374;10.930;2022-11-02T12:58:06;4.17;;;0.90;;
65234;SDS011;51820;48.374;10.930;2022-11-02T13:00:46;6.57;;;1.00;;
65234;SDS011;51820;48.374;10.930;2022-11-02T13:03:21;6.43;;;1.10;;
65234;SDS011;51820;48.374;10.930;2022-11-02T13:06:02;8.60;;;1.23;;
65234;SDS011;51820;48.374;10.930;2022-11-02T13:08:34;6.97;;;1.30;;
65234;SDS011;51820;48.374;10.930;2022-11-02T13:11:07;5.47;;;0.90;;
65234;SDS011;51820;48.374;10.930;2022-11-02T13:13:44;5.80;;;0.90;;
65234;SDS011;51820;48.374;10.930;2022-11-02T13:16:16;4.90;;;0.90;;
65234;SDS011;51820;48.374;10.930;2022-11-02T13:18:47;7.25;;;1.75;;
65234;SDS011;51820;48.374;10.930;2022-11-02T13:21:20;8.07;;;2.00;;
65234;SDS011;51820;48.374;10.930;2022-11-02T13:23:56;5.67;;;1.40;;
65234;SDS011;51820;48.374;10.930;2022-11-02T13:26:28;7.78;;;1.55;;
65234;SDS011;51820;48.374;10.930;2022-11-02T13:29:04;4.85;;;1.10;;
65234;SDS011;51820;48.374;10.930;2022-11-02T13:31:40;5.82;;;1.08;;
65234;SDS011;51820;48.374;10.930;2022-11-02T13:34:13;6.40;;;1.00;;
65234;SDS011;51820;48.374;10.930;2022-11-02T13:36:44;7.43;;;0.90;;
65234;SDS011;51820;48.374;10.930;2022-11-02T13:39:14;6.50;;;1.10;;
65234;SDS011;51820;48.374;10.930;2022-11-02T13:41:56;7.93;;;0.90;;
65234;SDS011;51820;48.374;10.930;2022-11-02T13:44:57;7.63;;;1.05;;
65234;SDS011;51820;48.374;10.930;2022-11-02T13:47:52;7.20;;;0.93;;
65234;SDS011;51820;48.374;10.930;2022-11-02T13:50:37;4.70;;;1.00;;
65234;SDS011;51820;48.374;10.930;2022-11-02T13:53:25;7.18;;;1.00;;
65234;SDS011;51820;48.374;10.930;2022-11-02T13:55:57;6.95;;;1.00;;
65234;SDS011;51820;48.374;10.930;2022-11-02T13:58:31;4.05;;;1.00;;
65234;SDS011;51820;48.374;10.930;2022-11-02T14:01:05;6.07;;;0.90;;
65234;SDS011;51820;48.374;10.930;2022-11-02T14:03:41;7.70;;;0.93;;
65234;SDS011;51820;48.374;10.930;2022-11-02T14:06:16;4.68;;;0.90;;
65234;SDS011;51820;48.374;10.930;2022-11-02T14:08:49;6.03;;;1.27;;
65234;SDS011;51820;48.374;10.930;2022-11-02T14:11:26;8.52;;;1.65;;
65234;SDS011;51820;48.374;10.930;2022-11-02T14:14:15;6.70;;;1.23;;
65234;SDS011;51820;48.374;10.930;2022-11-02T14:16:56;9.03;;;1.30;;
65234;SDS011;51820;48.374;10.930;2022-11-02T14:26:01;5.57;;;1.05;;
65234;SDS011;51820;48.374;10.930;2022-11-02T14:28:33;5.30;;;0.95;;
65234;SDS011;51820;48.374;10.930;2022-11-02T14:31:27;5.87;;;1.07;;
65234;SDS011;51820;48.374;10.930;2022-11-02T14:34:10;7.13;;;1.05;;
65234;SDS011;51820;48.374;10.930;2022-11-02T14:37:03;5.13;;;1.02;;
65234;SDS011;51820;48.374;10.930;2022-11-02T14:39:47;8.30;;;0.98;;
65234;SDS011;51820;48.374;10.930;2022-11-02T14:42:24;5.78;;;0.98;;
65234;SDS011;51820;48.374;10.930;2022-11-02T14:45:20;4.90;;;1.00;;
65234;SDS011;51820;48.374;10.930;2022-11-02T14:48:00;8.43;;;1.33;;
65234;SDS011;51820;48.374;10.930;2022-11-02T14:50:34;10.05;;;1.13;;
65234;SDS011;51820;48.374;10.930;2022-11-02T14:53:04;7.45;;;1.15;;
65234;SDS011;51820;48.374;10.930;2022-11-02T14:55:36;6.22;;;1.38;;
65234;SDS011;51820;48.374;10.930;2022-11-02T14:58:06;5.93;;;1.40;;
65234;SDS011;51820;48.374;10.930;2022-11-02T15:00:53;7.53;;;1.35;;
65234;SDS011;51820;48.374;10.930;2022-11-02T15:03:28;6.97;;;1.40;;
65234;SDS011;51820;48.374;10.930;2022-11-02T15:06:02;7.05;;;1.55;;
65234;SDS011;51820;48.374;10.930;2022-11-02T15:08:33;9.52;;;1.52;;
65234;SDS011;51820;48.374;10.930;2022-11-02T15:20:29;7.43;;;1.40;;
65234;SDS011;51820;48.374;10.930;2022-11-02T15:23:01;9.45;;;1.48;;
65234;SDS011;51820;48.374;10.930;2022-11-02T15:25:55;9.97;;;1.63;;
65234;SDS011;51820;48.374;10.930;2022-11-02T15:28:27;8.20;;;1.45;;
65234;SDS011;51820;48.374;10.930;2022-11-02T15:30:59;8.38;;;1.50;;
65234;SDS011;51820;48.374;10.930;2022-11-02T15:33:33;8.95;;;1.88;;
65234;SDS011;51820;48.374;10.930;2022-11-02T15:36:08;8.43;;;2.00;;
65234;SDS011;51820;48.374;10.930;2022-11-02T15:38:50;9.40;;;1.67;;
65234;SDS011;51820;48.374;10.930;2022-11-02T15:41:33;7.13;;;1.73;;
65234;SDS011;51820;48.374;10.930;2022-11-02T15:44:10;7.32;;;1.60;;
65234;SDS011;51820;48.374;10.930;2022-11-02T15:46:54;7.88;;;1.52;;
65234;SDS011;51820;48.374;10.930;2022-11-02T15:49:43;6.57;;;1.52;;
65234;SDS011;51820;48.374;10.930;2022-11-02T15:52:46;6.93;;;1.40;;
65234;SDS011;51820;48.374;10.930;2022-11-02T15:56:04;7.82;;;1.38;;
65234;SDS011;51820;48.374;10.930;2022-11-02T15:59:03;11.90;;;1.58;;
65234;SDS011;51820;48.374;10.930;2022-11-02T16:02:00;10.52;;;2.22;;
65234;SDS011;51820;48.374;10.930;2022-11-02T16:04:42;6.75;;;1.90;;
65234;SDS011;51820;48.374;10.930;2022-11-02T16:07:17;8.33;;;2.43;;
65234;SDS011;51820;48.374;10.930;2022-11-02T16:09:48;10.70;;;2.70;;
65234;SDS011;51820;48.374;10.930;2022-11-02T16:12:20;9.70;;;2.90;;
65234;SDS011;51820;48.374;10.930;2022-11-02T16:14:55;12.02;;;3.58;;
65234;SDS011;51820;48.374;10.930;2022-11-02T16:17:25;13.73;;;4.00;;
65234;SDS011;51820;48.374;10.930;2022-11-02T16:20:07;15.23;;;5.13;;
65234;SDS011;51820;48.374;10.930;2022-11-02T16:22:37;15.10;;;5.10;;
65234;SDS011;51820;48.374;10.930;2022-11-02T16:25:10;16.20;;;5.50;;